Flight Track Log - Related Links

Times and Time Zones

All times are in EDT time to prevent confusion due to time zone crossing. See the ACA831 flight status page for this flight to view local times or setup timezone preferences in your user account.

Time Position Orientation Groundspeed Altitude Reporting Facility
EDT Latitude Longitude Course Direction KTS MPH feet Rate Location/Type
Mon 04:15:07 PM 45.4720 -73.7220 199° South 115 132  Level FlightAware ADS-B
Mon 04:15:29 PM 45.4600 -73.7380 223° Southwest 153 176 700 3,000 Climbing FlightAware ADS-B
Mon 04:15:49 PM 45.4480 -73.7530 221° Southwest 152 175 2,100 3,150 Climbing FlightAware ADS-B
Mon 04:16:09 PM 45.4350 -73.7690 221° Southwest 192 221 2,800 1,950 Climbing FlightAware ADS-B
Mon 04:16:29 PM 45.4200 -73.7870 220° Southwest 231 266 3,400 2,933 Climbing FlightAware ADS-B
Mon 04:16:54 PM 45.4000 -73.8140 223° Southwest 240 276 5,000 3,429 Climbing FlightAware ADS-B
Mon 04:17:04 PM 45.3950 -73.8270 241° Southwest 249 287 5,400 3,360 Climbing FlightAware ADS-B
Mon 04:17:19 PM 45.3900 -73.8530 255° West 263 303 6,400 4,650 Climbing FlightAware ADS-B
Mon 04:17:44 PM 45.3910 -73.8960 272° West 254 292 8,500 4,650 Climbing FlightAware ADS-B
Mon 04:17:59 PM 45.3920 -73.9220 273° West 261 300 9,500 3,360 Climbing FlightAware ADS-B
Mon 04:18:34 PM 45.3950 -73.9850 274° West 296 341 11,300 3,686 Climbing FlightAware ADS-B
Mon 04:19:09 PM 45.3990 -74.0550 275° West 300 345 13,800 4,200 Climbing FlightAware ADS-B
Mon 04:19:44 PM 45.4020 -74.1240 274° West 302 348 16,200 2,958 Climbing FlightAware ADS-B
Mon 04:20:20 PM 45.4060 -74.1990 274° West 346 398 17,300 2,197 Climbing FlightAware ADS-B
Mon 04:20:55 PM 45.4100 -74.2830 274° West 369 425 18,800 3,000 Climbing FlightAware ADS-B
Mon 04:21:30 PM 45.4140 -74.3690 274° West 378 435 20,800 3,171 Climbing FlightAware ADS-B
Mon 04:22:05 PM 45.4120 -74.4560 268° West 386 444 22,500 2,914 Climbing FlightAware ADS-B
Mon 04:22:40 PM 45.3980 -74.5440 257° West 395 455 24,200 3,000 Climbing FlightAware ADS-B
Mon 04:23:15 PM 45.3830 -74.6330 257° West 397 457 26,000 2,914 Climbing FlightAware ADS-B
Mon 04:23:50 PM 45.3670 -74.7260 256° West 400 460 27,600 2,846 Climbing FlightAware ADS-B
Mon 04:24:33 PM 45.3490 -74.8310 256° West 394 453 29,700 3,077 Climbing FlightAware ADS-B
Mon 04:25:08 PM 45.3340 -74.9210 257° West 384 442 31,600 3,083 Climbing FlightAware ADS-B
Mon 04:25:45 PM 45.3190 -75.0060 256° West 367 422 33,400 2,057 Climbing FlightAware ADS-B
Mon 04:26:18 PM 45.3050 -75.0890 257° West 372 428 34,000 514 Climbing FlightAware ADS-B
Mon 04:26:55 PM 45.2900 -75.1750 256° West 374 430 34,000  Level FlightAware ADS-B
Mon 04:27:25 PM 45.2770 -75.2470 256° West 373 429 34,000  Level FlightAware ADS-B
Mon 04:28:05 PM 45.2610 -75.3410 256° West 370 426 34,000  Level FlightAware ADS-B
Mon 04:28:40 PM 45.2460 -75.4240 256° West 370 426 34,000  Level FlightAware ADS-B
Mon 04:29:10 PM 45.2330 -75.4970 256° West 370 426 34,000  Level FlightAware ADS-B
Mon 04:29:45 PM 45.2200 -75.5740 257° West 370 426 34,000  Level FlightAware ADS-B
Mon 04:30:25 PM 45.2020 -75.6740 256° West 371 427 34,000  Level FlightAware ADS-B
Mon 04:30:56 PM 45.1890 -75.7440 255° West 372 428 34,000  Level FlightAware ADS-B
Mon 04:31:31 PM 45.1740 -75.8270 256° West 373 429 34,000  Level FlightAware ADS-B
Mon 04:32:06 PM 45.1590 -75.9110 256° West 374 430 34,000  Level FlightAware ADS-B
Mon 04:32:46 PM 45.1420 -76.0070 256° West 373 429 34,000  Level FlightAware ADS-B
Mon 04:33:16 PM 45.1290 -76.0750 255° West 374 430 34,000  Level FlightAware ADS-B
Mon 04:33:51 PM 45.1140 -76.1590 256° West 377 434 34,000  Level FlightAware ADS-B
Mon 04:34:21 PM 45.0970 -76.2350 252° West 377 434 34,000  Level FlightAware ADS-B
Mon 04:34:50 PM 45.0760 -76.2940 243° Southwest 380 437 34,000  Level FlightAware ADS-B
Mon 04:35:39 PM 45.0310 -76.4070 241° Southwest 381 438 34,000  Level FlightAware ADS-B
Mon 04:36:17 PM 45.0040 -76.4760 241° Southwest 381 438 34,000  Level FlightAware ADS-B
Mon 04:36:52 PM 44.9740 -76.5510 241° Southwest 382 440 34,000  Level FlightAware ADS-B
Mon 04:37:32 PM 44.9380 -76.6420 241° Southwest 383 441 34,000  Level FlightAware ADS-B
Mon 04:38:02 PM 44.9130 -76.7050 241° Southwest 384 442 34,000  Level FlightAware ADS-B
Mon 04:38:37 PM 44.8850 -76.7740 240° Southwest 385 443 34,000  Level FlightAware ADS-B
Mon 04:39:17 PM 44.8470 -76.8700 241° Southwest 386 444 34,000  Level FlightAware ADS-B
Mon 04:39:47 PM 44.8230 -76.9280 240° Southwest 386 444 34,000  Level FlightAware ADS-B
Mon 04:40:24 PM 44.7920 -77.0040 240° Southwest 387 445 34,000  Level FlightAware ADS-B
Mon 04:41:02 PM 44.7550 -77.0980 241° Southwest 387 445 34,000 -169 Level FlightAware ADS-B
Mon 04:41:35 PM 44.7220 -77.1800 240° Southwest 385 443 33,800 -857 Descending FlightAware ADS-B
Mon 04:42:12 PM 44.6940 -77.2480 240° Southwest 390 449 33,000 -1,478 Descending FlightAware ADS-B
Mon 04:42:44 PM 44.6590 -77.3330 240° Southwest 392 451 32,100 -2,000 Descending FlightAware ADS-B
Mon 04:43:18 PM 44.6300 -77.4030 240° Southwest 388 447 30,800 -2,382 Descending FlightAware ADS-B
Mon 04:43:52 PM 44.6000 -77.4790 241° Southwest 378 435 29,400 -2,096 Descending FlightAware ADS-B
Mon 04:44:41 PM 44.5590 -77.5770 240° Southwest 365 420 27,900 -2,087 Descending FlightAware ADS-B
Mon 04:45:24 PM 44.5220 -77.6670 240° Southwest 368 423 26,200 -1,950 Descending FlightAware ADS-B
Mon 04:46:01 PM 44.4940 -77.7360 240° Southwest 364 419 25,300 -1,583 Descending FlightAware ADS-B
Mon 04:46:36 PM 44.4640 -77.8070 239° Southwest 361 415 24,300 -1,714 Descending FlightAware ADS-B
Mon 04:47:11 PM 44.4340 -77.8810 240° Southwest 357 411 23,300 -1,629 Descending FlightAware ADS-B
Mon 04:47:46 PM 44.4040 -77.9500 239° Southwest 355 409 22,400 -1,629 Descending FlightAware ADS-B
Mon 04:48:21 PM 44.3770 -78.0160 240° Southwest 356 410 21,400 -1,543 Descending FlightAware ADS-B
Mon 04:48:56 PM 44.3470 -78.0880 240° Southwest 351 404 20,600 -1,371 Descending FlightAware ADS-B
Mon 04:49:31 PM 44.3210 -78.1500 240° Southwest 349 402 19,800 -1,543 Descending FlightAware ADS-B
Mon 04:50:06 PM 44.2890 -78.2250 239° Southwest 347 399 18,800 -1,543 Descending FlightAware ADS-B
Mon 04:50:41 PM 44.2620 -78.2900 240° Southwest 345 397 18,000 -1,286 Descending FlightAware ADS-B
Mon 04:51:16 PM 44.2330 -78.3570 239° Southwest 343 395 17,300 -1,286 Descending FlightAware ADS-B
Mon 04:51:51 PM 44.2040 -78.4250 239° Southwest 341 392 16,500 -1,286 Descending FlightAware ADS-B
Mon 04:52:26 PM 44.1780 -78.4860 239° Southwest 339 390 15,800 -1,371 Descending FlightAware ADS-B
Mon 04:53:01 PM 44.1520 -78.5490 240° Southwest 334 384 14,900 -1,971 Descending FlightAware ADS-B
Mon 04:53:36 PM 44.1210 -78.6210 239° Southwest 334 384 13,500 -2,229 Descending FlightAware ADS-B
Mon 04:54:11 PM 44.0950 -78.6830 240° Southwest 332 382 12,300 -2,143 Descending FlightAware ADS-B
Mon 04:54:46 PM 44.0660 -78.7490 239° Southwest 327 376 11,000 -1,629 Descending FlightAware ADS-B
Mon 04:55:21 PM 44.0380 -78.8090 237° Southwest 312 359 10,400 -771 Descending FlightAware ADS-B
Mon 04:55:56 PM 44.0070 -78.8570 228° Southwest 284 327 10,100 -436 Descending FlightAware ADS-B
Mon 04:56:16 PM 43.9890 -78.8840 227° Southwest 268 308 10,000 -900 Descending FlightAware ADS-B
Mon 04:56:36 PM 43.9720 -78.9100 228° Southwest 266 306 9,500 -1,543 Descending FlightAware ADS-B
Mon 04:56:51 PM 43.9600 -78.9290 229° Southwest 267 307 9,100 -1,500 Descending FlightAware ADS-B
Mon 04:57:16 PM 43.9390 -78.9600 227° Southwest 266 306 8,500 -1,467 Descending FlightAware ADS-B
Mon 04:57:36 PM 43.9220 -78.9850 227° Southwest 263 303 8,000 -1,500 Descending FlightAware ADS-B
Mon 04:57:56 PM 43.9050 -79.0100 227° Southwest 256 295 7,500 -1,200 Descending FlightAware ADS-B
Mon 04:58:16 PM 43.8900 -79.0330 228° Southwest 244 281 7,200 -750 Descending FlightAware ADS-B
Mon 04:58:36 PM 43.8760 -79.0550 229° Southwest 225 259 7,000 -400 Descending FlightAware ADS-B
Mon 04:58:46 PM 43.8730 -79.0670 251° West 226 260 7,000  Level FlightAware ADS-B
Mon 04:58:51 PM 43.8710 -79.0760 253° West 228 262 7,000 -818 Level FlightAware ADS-B
Mon 04:59:08 PM 43.8700 -79.0960 266° West 230 265 6,700 -1,297 Descending FlightAware ADS-B
Mon 04:59:28 PM 43.8710 -79.1230 273° West 224 258 6,200 -1,625 Descending FlightAware ADS-B
Mon 04:59:56 PM 43.8680 -79.1700 265° West 223 257 5,400 -1,535 Descending FlightAware ADS-B
Mon 05:00:11 PM 43.8650 -79.1920 259° West 223 257 5,100 -1,200 Descending FlightAware ADS-B
Mon 05:00:31 PM 43.8610 -79.2210 259° West 222 255 4,700 -1,200 Descending FlightAware ADS-B
Mon 05:00:51 PM 43.8580 -79.2480 261° West 222 255 4,300 -1,200 Descending FlightAware ADS-B
Mon 05:01:06 PM 43.8560 -79.2700 263° West 223 257 4,000 -1,029 Descending FlightAware ADS-B
Mon 05:01:26 PM 43.8530 -79.2970 261° West 222 255 3,700 -1,050 Descending FlightAware ADS-B
Mon 05:01:46 PM 43.8510 -79.3250 264° West 221 254 3,300 -1,000 Descending FlightAware ADS-B
Mon 05:01:56 PM 43.8490 -79.3390 259° West 214 246 3,200 -800 Descending FlightAware ADS-B
Mon 05:02:01 PM 43.8460 -79.3460 239° Southwest 208 239 3,100 -600 Descending FlightAware ADS-B
Mon 05:02:16 PM 43.8370 -79.3610 230° Southwest 197 227 3,000 -240 Descending FlightAware ADS-B
Mon 05:02:26 PM 43.8310 -79.3690 224° Southwest 192 221 3,000  Level FlightAware ADS-B
Mon 05:02:51 PM 43.8160 -79.3920 228° Southwest 194 223 3,000  Level FlightAware ADS-B
Mon 05:03:11 PM 43.8040 -79.4100 227° Southwest 196 226 3,000  Level FlightAware ADS-B
Mon 05:03:31 PM 43.7910 -79.4290 227° Southwest 194 223 3,000  Level FlightAware ADS-B
Mon 05:03:56 PM 43.7780 -79.4480 227° Southwest 174 200 3,000  Level FlightAware ADS-B
Mon 05:04:06 PM 43.7710 -79.4580 226° Southwest 171 197 3,000  Level FlightAware ADS-B
Mon 05:04:26 PM 43.7600 -79.4740 226° Southwest 174 200 3,000 -533 Level FlightAware ADS-B
Mon 05:04:51 PM 43.7460 -79.4940 226° Southwest 168 193 2,600 -857 Descending FlightAware ADS-B
Mon 05:05:01 PM 43.7410 -79.5010 225° Southwest 160 184 2,500 -800 Descending FlightAware ADS-B
Mon 05:05:21 PM 43.7310 -79.5160 227° Southwest 154 177 2,200 -857 Descending FlightAware ADS-B
Mon 05:05:36 PM 43.7240 -79.5260 226° Southwest 147 169 2,000 -800 Descending FlightAware ADS-B
Mon 05:06:06 PM 43.7100 -79.5460 226° Southwest 138 159 1,600 -840 Descending FlightAware ADS-B
Mon 05:06:26 PM 43.7010 -79.5590 226° Southwest 140 161 1,300 -732 Descending FlightAware ADS-B
Mon 05:06:47 PM 43.6920 -79.5720 226° Southwest 142 163 1,100 -600 Descending FlightAware ADS-B
Mon 05:07:06 PM 43.6840 -79.5850 230° Southwest 147 169 900 -436 Descending FlightAware ADS-B
Mon 05:07:42 PM 43.6690 -79.6050 224° Southwest 147 169 700 -333 Descending FlightAware ADS-B

Login

Don't have an account? Register now (free) for customized features, flight alerts, and more!